Logrono, Spain
Current Conditions -  °F | °C
As of 8:00 AM on Wednesday 22 Oct 2014 (Local Time) from LELO Reporting Station
Few Clouds Few Clouds  
Wind Chill: 57°   Ceiling: Unl
Heat Index: 57°   Visibility: 6mi
Dew Point: 48°   Wind: 3mph
Humidity: 72%   Direction: 300°WNW
Pressure: 30.42"   Gusts: NA
Location:  42.47°N, 2.45°W
Report Text: LELO 220600Z 30003KT 250V330 9999 FEW035 14/09 Q1030
Loading
Personal Weather Stations






























Interactive Weather Map New forecast layout! Learn more

10-Day Weather Forecast

Advertisements
Track Severe Weather on mobile